createdAt,value
2022-10-01T00:02:10.872Z,19.50
2022-10-01T00:04:39.700Z,18.80
2022-10-01T00:07:11.118Z,19.50
2022-10-01T00:09:39.509Z,18.40
2022-10-01T00:12:07.989Z,17.80
2022-10-01T00:14:39.159Z,18.60
2022-10-01T00:17:07.693Z,18.80
2022-10-01T00:19:36.040Z,19.90
2022-10-01T00:22:04.347Z,18.60
2022-10-01T00:24:32.767Z,19.50
2022-10-01T00:27:01.058Z,19.00
2022-10-01T00:29:31.869Z,19.10
2022-10-01T00:32:00.461Z,18.70
2022-10-01T00:34:28.925Z,18.60
2022-10-01T00:36:57.243Z,20.20
2022-10-01T00:39:25.602Z,18.00
2022-10-01T00:41:54.689Z,20.70
2022-10-01T00:44:38.433Z,19.90
2022-10-01T00:47:31.704Z,20.30
2022-10-01T00:50:09.998Z,18.10
2022-10-01T00:52:41.830Z,18.40
2022-10-01T00:55:15.894Z,19.90
2022-10-01T00:57:45.601Z,20.30
2022-10-01T01:00:14.891Z,18.90
2022-10-01T01:02:43.792Z,19.50
2022-10-01T01:05:13.974Z,19.60
2022-10-01T01:07:48.545Z,20.40
2022-10-01T01:10:29.917Z,18.20
2022-10-01T01:13:11.939Z,18.40
2022-10-01T01:15:58.945Z,19.90
2022-10-01T01:19:00.798Z,19.10
2022-10-01T01:21:56.715Z,18.70
2022-10-01T01:24:46.544Z,17.70
2022-10-01T01:27:33.409Z,20.80
2022-10-01T01:30:08.649Z,20.40
2022-10-01T01:33:04.740Z,19.80
2022-10-01T01:35:44.866Z,18.10
2022-10-01T01:38:28.075Z,19.30
2022-10-01T01:41:02.202Z,19.90
2022-10-01T01:43:35.688Z,19.90
2022-10-01T01:46:08.882Z,18.90
2022-10-01T01:48:41.791Z,18.40
2022-10-01T01:51:34.184Z,20.40
2022-10-01T01:54:03.285Z,17.90
2022-10-01T01:56:32.320Z,18.80
2022-10-01T01:59:01.483Z,18.90
2022-10-01T02:01:44.258Z,18.90
2022-10-01T02:04:24.504Z,17.60
2022-10-01T02:07:11.156Z,20.10
2022-10-01T02:09:59.698Z,19.90
2022-10-01T02:13:01.596Z,19.70
2022-10-01T02:15:44.945Z,19.40
2022-10-01T02:18:47.807Z,20.80
2022-10-01T02:22:11.029Z,18.70
2022-10-01T02:24:50.907Z,19.10
2022-10-01T02:27:53.441Z,20.70
2022-10-01T02:30:22.099Z,21.40
2022-10-01T02:32:52.652Z,20.20
2022-10-01T02:35:22.028Z,20.70
2022-10-01T02:37:56.304Z,19.50
2022-10-01T02:40:28.329Z,21.30
2022-10-01T02:43:04.570Z,21.20
2022-10-01T02:45:37.885Z,21.00
2022-10-01T02:48:11.091Z,21.00
2022-10-01T02:50:57.194Z,22.00
2022-10-01T02:53:36.003Z,21.60
2022-10-01T02:56:07.092Z,20.90
2022-10-01T02:58:36.423Z,18.80
2022-10-01T03:01:05.409Z,21.70
2022-10-01T03:03:33.764Z,21.20
2022-10-01T03:06:02.094Z,21.20
2022-10-01T03:08:31.594Z,21.10
2022-10-01T03:11:01.098Z,20.40
2022-10-01T03:13:29.503Z,21.30
2022-10-01T03:15:57.863Z,22.90
2022-10-01T03:18:26.428Z,22.10
2022-10-01T03:20:54.773Z,23.00
2022-10-01T03:23:23.320Z,21.70
2022-10-01T03:25:51.692Z,23.10
2022-10-01T03:28:20.093Z,19.20
2022-10-01T03:30:48.521Z,22.80
2022-10-01T03:33:16.930Z,23.30
2022-10-01T03:35:45.215Z,22.00
2022-10-01T03:38:13.871Z,25.10
2022-10-01T03:40:42.198Z,22.70
2022-10-01T03:43:10.535Z,22.70
2022-10-01T03:45:39.578Z,22.60
2022-10-01T03:48:07.962Z,20.90
2022-10-01T03:50:36.744Z,20.20
2022-10-01T03:53:06.556Z,20.90
2022-10-01T03:55:34.881Z,20.80
2022-10-01T03:58:03.657Z,18.90
2022-10-01T04:00:31.951Z,20.10
2022-10-01T04:03:00.360Z,18.40
2022-10-01T04:05:29.002Z,20.80
2022-10-01T04:07:59.692Z,27.20
2022-10-01T04:10:28.089Z,22.80
2022-10-01T04:12:56.873Z,19.30
2022-10-01T04:15:25.662Z,19.80
2022-10-01T04:17:55.031Z,17.90
2022-10-01T04:20:23.593Z,18.70
2022-10-01T04:22:53.183Z,18.90
2022-10-01T04:25:21.655Z,18.80
2022-10-01T04:28:02.035Z,17.60
2022-10-01T04:30:35.067Z,19.80
2022-10-01T04:33:04.720Z,18.10
2022-10-01T04:35:34.086Z,18.80
2022-10-01T04:38:06.343Z,17.40
2022-10-01T04:40:36.750Z,19.20
2022-10-01T04:43:09.648Z,17.60
2022-10-01T04:45:38.442Z,17.90
2022-10-01T04:48:06.844Z,17.90
2022-10-01T04:50:35.185Z,16.80
2022-10-01T04:53:03.558Z,17.40
2022-10-01T04:55:31.922Z,16.50
2022-10-01T04:58:00.256Z,17.00
2022-10-01T05:00:30.049Z,18.10
2022-10-01T05:02:58.514Z,18.00
2022-10-01T05:05:29.168Z,17.70
2022-10-01T05:07:57.599Z,18.00
2022-10-01T05:10:26.291Z,19.60
2022-10-01T05:15:36.962Z,17.90
2022-10-01T05:18:05.287Z,18.80
2022-10-01T05:20:34.430Z,20.50
2022-10-01T05:23:02.709Z,19.30
2022-10-01T05:25:30.992Z,19.50
2022-10-01T05:28:05.997Z,18.10
2022-10-01T05:30:35.135Z,18.20
2022-10-01T05:33:05.052Z,22.30
2022-10-01T05:35:33.499Z,21.40
2022-10-01T05:38:03.068Z,20.70
2022-10-01T05:40:31.649Z,21.20
2022-10-01T05:43:00.434Z,20.70
2022-10-01T05:45:31.884Z,20.20
2022-10-01T05:48:03.652Z,20.10
2022-10-01T05:50:35.829Z,20.70
2022-10-01T05:53:04.392Z,21.20
2022-10-01T05:55:36.923Z,19.70
2022-10-01T05:58:11.370Z,21.70
2022-10-01T06:00:42.022Z,18.00
2022-10-01T06:03:15.294Z,18.80
2022-10-01T06:05:44.651Z,18.90
2022-10-01T06:08:13.240Z,18.30
2022-10-01T06:10:41.929Z,18.00
2022-10-01T06:13:10.568Z,17.50
2022-10-01T06:15:39.171Z,17.00
2022-10-01T06:18:10.474Z,18.80
2022-10-01T06:20:40.975Z,19.30
2022-10-01T06:23:12.584Z,20.00
2022-10-01T06:25:43.544Z,18.50
2022-10-01T06:28:14.898Z,18.90
2022-10-01T06:30:43.729Z,18.60
2022-10-01T06:33:15.535Z,19.50
2022-10-01T06:35:49.836Z,21.40
2022-10-01T06:38:21.318Z,20.50
2022-10-01T06:40:55.287Z,21.00
2022-10-01T06:43:25.547Z,21.50
2022-10-01T06:45:54.827Z,21.30
2022-10-01T06:48:23.674Z,21.30
2022-10-01T06:50:53.146Z,22.30
2022-10-01T06:53:21.540Z,21.70
2022-10-01T06:55:50.098Z,21.40
2022-10-01T06:58:27.651Z,23.10
2022-10-01T07:01:03.844Z,22.70
2022-10-01T07:03:32.354Z,22.60
2022-10-01T07:06:04.124Z,23.50
2022-10-01T07:08:33.490Z,21.10
2022-10-01T07:11:03.110Z,21.50
2022-10-01T07:13:31.827Z,19.00
2022-10-01T07:16:04.377Z,18.50
2022-10-01T07:18:33.305Z,20.10
2022-10-01T07:21:01.951Z,20.10
2022-10-01T07:23:30.455Z,18.30
2022-10-01T07:25:59.104Z,20.80
2022-10-01T07:28:28.300Z,20.20
2022-10-01T07:31:07.274Z,20.50
2022-10-01T07:33:35.965Z,18.60
2022-10-01T07:36:08.505Z,20.50
2022-10-01T07:38:36.935Z,18.40
2022-10-01T07:41:06.005Z,18.90
2022-10-01T07:43:36.458Z,17.00
2022-10-01T07:46:07.307Z,16.30
2022-10-01T07:48:35.973Z,17.30
2022-10-01T07:51:04.527Z,17.60
2022-10-01T07:53:32.874Z,16.50
2022-10-01T07:56:02.965Z,15.20
2022-10-01T07:58:31.427Z,16.20
2022-10-01T08:01:04.464Z,15.60
2022-10-01T08:03:32.832Z,14.60
2022-10-01T08:06:04.121Z,16.10
2022-10-01T08:08:33.523Z,14.50
2022-10-01T08:11:07.234Z,14.90
2022-10-01T08:13:36.013Z,15.10
2022-10-01T08:16:06.228Z,14.40
2022-10-01T08:18:35.131Z,13.70
2022-10-01T08:21:04.571Z,13.00
2022-10-01T08:23:33.903Z,14.70
2022-10-01T08:26:07.649Z,13.60
2022-10-01T08:28:36.180Z,15.40
2022-10-01T08:31:10.047Z,15.10
2022-10-01T08:33:38.824Z,13.60
2022-10-01T08:36:08.648Z,13.90
2022-10-01T08:38:40.728Z,12.20
2022-10-01T08:41:49.581Z,14.10
2022-10-01T08:44:28.223Z,13.00
2022-10-01T08:47:13.995Z,11.90
2022-10-01T08:49:56.348Z,12.60
2022-10-01T08:52:37.014Z,11.80
2022-10-01T08:55:21.285Z,11.00
2022-10-01T08:58:04.204Z,10.90
2022-10-01T09:00:38.852Z,10.20
2022-10-01T09:03:12.955Z,10.10
2022-10-01T09:05:59.624Z,9.80
2022-10-01T09:09:24.826Z,9.40
2022-10-01T09:12:31.509Z,9.70
2022-10-01T09:15:40.132Z,9.80
2022-10-01T09:18:46.915Z,8.40
2022-10-01T09:21:27.188Z,8.90
2022-10-01T09:24:10.332Z,8.30
2022-10-01T09:26:45.087Z,8.20
2022-10-01T09:29:23.052Z,8.80
2022-10-01T09:31:53.826Z,8.00
2022-10-01T09:34:40.106Z,8.10
2022-10-01T09:37:15.181Z,7.50
2022-10-01T09:42:30.341Z,7.70
2022-10-01T09:44:59.328Z,7.60
2022-10-01T09:47:28.143Z,7.90
2022-10-01T09:50:00.313Z,7.50
2022-10-01T09:52:39.219Z,8.10
2022-10-01T09:55:46.079Z,6.90
2022-10-01T09:58:23.122Z,5.20
2022-10-01T10:00:53.741Z,4.50
2022-10-01T10:03:25.441Z,3.90
2022-10-01T10:05:55.029Z,4.20
2022-10-01T10:08:40.456Z,4.30
2022-10-01T10:13:51.046Z,4.00
2022-10-01T10:16:35.330Z,4.60
2022-10-01T10:19:15.157Z,4.40
2022-10-01T10:21:53.209Z,4.70
2022-10-01T10:24:32.837Z,4.10
2022-10-01T10:27:06.996Z,4.00
2022-10-01T10:29:37.581Z,3.80
2022-10-01T10:32:27.656Z,3.80
2022-10-01T10:35:04.922Z,3.60
2022-10-01T10:37:38.460Z,4.00
2022-10-01T10:40:10.775Z,4.10
2022-10-01T10:42:48.011Z,3.30
2022-10-01T10:45:21.364Z,2.70
2022-10-01T10:47:52.938Z,2.50
2022-10-01T10:50:33.914Z,3.00
2022-10-01T10:53:24.350Z,2.30
2022-10-01T10:56:06.471Z,2.70
2022-10-01T10:58:42.502Z,2.50
2022-10-01T11:01:18.038Z,2.20
2022-10-01T11:03:57.697Z,1.80
2022-10-01T11:06:26.562Z,1.90
2022-10-01T11:09:07.386Z,2.00
2022-10-01T11:12:00.176Z,1.90
2022-10-01T11:15:08.077Z,1.70
2022-10-01T11:18:17.413Z,2.50
2022-10-01T11:21:04.223Z,2.50
2022-10-01T11:24:10.444Z,2.10
2022-10-01T11:26:58.699Z,2.20
2022-10-01T11:29:47.775Z,1.50
2022-10-01T11:32:19.726Z,2.20
2022-10-01T11:35:22.271Z,2.30
2022-10-01T11:38:06.711Z,2.20
2022-10-01T11:40:54.735Z,1.80
2022-10-01T11:43:41.202Z,1.70
2022-10-01T11:46:25.315Z,1.30
2022-10-01T11:49:46.663Z,1.50
2022-10-01T11:52:23.584Z,1.60
2022-10-01T11:55:21.504Z,1.80
2022-10-01T11:58:17.209Z,1.60
2022-10-01T12:01:15.309Z,1.90
2022-10-01T12:03:52.227Z,1.80
2022-10-01T12:06:33.722Z,2.40
2022-10-01T12:09:17.678Z,2.00
2022-10-01T12:11:54.092Z,2.10
2022-10-01T12:14:44.488Z,1.90
2022-10-01T12:17:25.873Z,2.50
2022-10-01T12:19:59.827Z,2.40
2022-10-01T12:22:41.090Z,2.40
2022-10-01T12:25:13.365Z,2.90
2022-10-01T12:28:24.094Z,2.60
2022-10-01T12:31:13.096Z,2.50
2022-10-01T12:33:59.696Z,2.40
2022-10-01T12:36:50.056Z,2.00
2022-10-01T12:39:43.163Z,2.70
2022-10-01T12:42:32.007Z,2.20
2022-10-01T12:45:00.216Z,2.50
2022-10-01T12:47:43.060Z,2.60
2022-10-01T12:50:47.285Z,1.60
2022-10-01T12:54:15.467Z,1.80
2022-10-01T12:57:00.520Z,1.70
2022-10-01T12:59:51.670Z,1.80
2022-10-01T13:02:57.363Z,1.70
2022-10-01T13:06:01.421Z,1.60
2022-10-01T13:09:03.443Z,1.60
2022-10-01T13:12:18.067Z,1.70
2022-10-01T13:14:47.613Z,1.20
2022-10-01T13:17:39.806Z,1.60
2022-10-01T13:20:29.104Z,1.60
2022-10-01T13:23:31.522Z,1.90
2022-10-01T13:26:27.346Z,1.40
2022-10-01T13:29:07.320Z,1.70
2022-10-01T13:31:53.082Z,1.50
2022-10-01T13:34:39.653Z,1.60
2022-10-01T13:37:16.510Z,0.90
2022-10-01T13:39:46.898Z,1.70
2022-10-01T13:42:29.895Z,1.90
2022-10-01T13:45:04.791Z,1.40
2022-10-01T13:47:41.247Z,1.60
2022-10-01T13:50:24.000Z,1.90
2022-10-01T13:53:25.474Z,1.80
2022-10-01T13:55:56.852Z,1.70
2022-10-01T13:58:45.929Z,2.10
2022-10-01T14:01:22.877Z,1.70
2022-10-01T14:04:05.220Z,1.90
2022-10-01T14:06:36.925Z,1.60
2022-10-01T14:09:13.496Z,2.10
2022-10-01T14:12:06.833Z,2.00
2022-10-01T14:14:56.642Z,1.80
2022-10-01T14:17:33.503Z,2.00
2022-10-01T14:20:03.037Z,2.30
2022-10-01T14:22:41.804Z,1.50
2022-10-01T14:25:23.189Z,2.20
2022-10-01T14:28:23.142Z,2.00
2022-10-01T14:31:45.542Z,2.20
2022-10-01T14:34:42.353Z,2.00
2022-10-01T14:37:17.463Z,2.40
2022-10-01T14:39:46.633Z,1.90
2022-10-01T14:42:18.578Z,1.90
2022-10-01T14:44:47.489Z,1.90
2022-10-01T14:47:22.754Z,1.80
2022-10-01T14:49:51.970Z,1.50
2022-10-01T14:52:28.271Z,2.30
2022-10-01T14:54:56.448Z,2.00
2022-10-01T14:57:39.559Z,2.00
2022-10-01T15:00:16.021Z,2.30
2022-10-01T15:03:15.606Z,2.70
2022-10-01T15:05:47.130Z,3.40
2022-10-01T15:08:41.330Z,2.70
2022-10-01T15:11:27.587Z,6.10
2022-10-01T15:14:06.397Z,3.40
2022-10-01T15:16:36.478Z,4.20
2022-10-01T15:19:15.834Z,3.90
2022-10-01T15:21:57.598Z,4.40
2022-10-01T15:24:49.395Z,9.10
2022-10-01T15:27:20.763Z,4.70
2022-10-01T15:29:56.922Z,4.20
2022-10-01T15:32:28.157Z,4.50
2022-10-01T15:35:01.411Z,3.30
2022-10-01T15:37:33.633Z,2.90
2022-10-01T15:40:06.011Z,3.20
2022-10-01T15:42:36.025Z,3.00
2022-10-01T15:45:07.251Z,3.50
2022-10-01T15:47:41.364Z,2.40
2022-10-01T15:50:09.546Z,1.10
2022-10-01T15:53:02.319Z,1.80
2022-10-01T15:55:43.908Z,2.40
2022-10-01T15:58:31.729Z,2.70
2022-10-01T16:01:06.618Z,1.70
2022-10-01T16:03:48.313Z,1.40
2022-10-01T16:06:29.592Z,1.50
2022-10-01T16:09:20.653Z,1.70
2022-10-01T16:11:53.562Z,1.90
2022-10-01T16:14:27.983Z,2.30
2022-10-01T16:17:18.060Z,1.60
2022-10-01T16:19:52.942Z,1.80
2022-10-01T16:22:29.119Z,2.30
2022-10-01T16:25:03.782Z,2.60
2022-10-01T16:27:50.608Z,2.40
2022-10-01T16:30:26.950Z,3.50
2022-10-01T16:32:59.311Z,3.40
2022-10-01T16:35:32.684Z,3.50
2022-10-01T16:38:01.529Z,3.20
2022-10-01T16:40:33.174Z,2.70
2022-10-01T16:43:03.204Z,2.00
2022-10-01T16:45:40.556Z,7.20
2022-10-01T16:48:19.685Z,8.90
2022-10-01T16:50:48.824Z,11.10
2022-10-01T16:53:18.915Z,23.50
2022-10-01T16:55:47.392Z,14.40
2022-10-01T16:58:16.022Z,12.50
2022-10-01T17:00:44.576Z,21.10
2022-10-01T17:03:18.370Z,56.90
2022-10-01T17:05:47.637Z,27.70
2022-10-01T17:08:16.484Z,32.60
2022-10-01T17:10:48.485Z,16.00
2022-10-01T17:13:17.052Z,7.40
2022-10-01T17:15:47.602Z,10.00
2022-10-01T17:18:16.441Z,3.40
2022-10-01T17:20:46.803Z,10.00
2022-10-01T17:23:19.388Z,8.30
2022-10-01T17:25:48.091Z,7.50
2022-10-01T17:28:20.403Z,7.00
2022-10-01T17:30:49.841Z,6.80
2022-10-01T17:33:19.892Z,9.20
2022-10-01T17:35:55.645Z,10.70
2022-10-01T17:38:24.051Z,10.10
2022-10-01T17:40:56.419Z,16.10
2022-10-01T17:43:25.940Z,19.80
2022-10-01T17:46:01.336Z,8.70
2022-10-01T17:48:30.287Z,12.30
2022-10-01T17:51:11.117Z,13.10
2022-10-01T17:53:42.590Z,21.20
2022-10-01T17:56:17.737Z,12.10
2022-10-01T17:58:46.557Z,14.70
2022-10-01T18:01:20.348Z,7.10
2022-10-01T18:03:57.737Z,9.80
2022-10-01T18:06:27.634Z,7.90
2022-10-01T18:08:56.863Z,8.60
2022-10-01T18:11:28.959Z,8.00
2022-10-01T18:13:58.598Z,13.30
2022-10-01T18:16:27.648Z,6.60
2022-10-01T18:21:51.149Z,11.50
2022-10-01T18:24:19.883Z,10.50
2022-10-01T18:26:48.327Z,15.00
2022-10-01T18:29:24.788Z,14.00
2022-10-01T18:32:12.953Z,13.80
2022-10-01T18:35:00.006Z,21.70
2022-10-01T18:37:40.201Z,7.80
2022-10-01T18:40:36.807Z,11.90
2022-10-01T18:43:11.263Z,7.60
2022-10-01T18:46:28.920Z,7.20
2022-10-01T18:49:19.074Z,5.40
2022-10-01T18:52:21.132Z,9.10
2022-10-01T18:55:25.343Z,8.20
2022-10-01T18:58:20.977Z,7.50
2022-10-01T19:01:16.981Z,9.00
2022-10-01T19:07:12.983Z,12.50
2022-10-01T19:10:01.838Z,16.20
2022-10-01T19:12:48.592Z,9.40
2022-10-01T19:15:36.986Z,4.50
2022-10-01T19:18:36.866Z,4.00
2022-10-01T19:21:39.936Z,8.70
2022-10-01T19:24:31.416Z,5.20
2022-10-01T19:27:39.116Z,5.10
2022-10-01T19:30:17.867Z,4.90
2022-10-01T19:32:56.549Z,5.50
2022-10-01T19:35:32.289Z,4.70
2022-10-01T19:38:11.248Z,5.10
2022-10-01T19:40:48.440Z,3.50
2022-10-01T19:43:40.613Z,8.90
2022-10-01T19:46:29.503Z,4.00
2022-10-01T19:49:09.929Z,3.70
2022-10-01T19:51:57.185Z,3.70
2022-10-01T19:54:38.856Z,4.40
2022-10-01T19:57:31.771Z,4.50
2022-10-01T20:00:09.741Z,4.40
2022-10-01T20:03:19.011Z,4.70
2022-10-01T20:05:56.575Z,4.70
2022-10-01T20:08:36.310Z,7.90
2022-10-01T20:11:14.114Z,4.80
2022-10-01T20:14:12.260Z,5.10
2022-10-01T20:16:49.038Z,4.00
2022-10-01T20:19:42.801Z,4.00
2022-10-01T20:22:40.420Z,3.90
2022-10-01T20:26:07.024Z,5.20
2022-10-01T20:29:20.326Z,4.20
2022-10-01T20:32:15.694Z,4.50
2022-10-01T20:35:21.694Z,4.00
2022-10-01T20:38:13.226Z,4.10
2022-10-01T20:40:52.608Z,4.70
2022-10-01T20:43:49.406Z,3.80
2022-10-01T20:46:39.007Z,4.20
2022-10-01T20:49:31.983Z,3.60
2022-10-01T20:52:37.962Z,3.40
2022-10-01T20:55:18.475Z,3.80
2022-10-01T20:58:03.523Z,4.20
2022-10-01T21:00:32.718Z,3.30
2022-10-01T21:03:30.125Z,3.90
2022-10-01T21:06:29.359Z,2.90
2022-10-01T21:09:20.864Z,3.80
2022-10-01T21:12:03.409Z,3.50
2022-10-01T21:14:45.181Z,3.10
2022-10-01T21:17:27.645Z,3.40
2022-10-01T21:20:21.048Z,4.30
2022-10-01T21:23:03.272Z,3.30
2022-10-01T21:26:08.332Z,3.90
2022-10-01T21:29:22.150Z,3.70
2022-10-01T21:32:16.753Z,4.00
2022-10-01T21:34:54.040Z,3.40
2022-10-01T21:37:33.494Z,3.80
2022-10-01T21:40:37.009Z,3.50
2022-10-01T21:43:10.263Z,3.90
2022-10-01T21:46:17.612Z,3.50
2022-10-01T21:48:55.767Z,3.40
2022-10-01T21:51:59.548Z,3.20
2022-10-01T21:55:12.410Z,3.60
2022-10-01T21:58:16.240Z,2.60
2022-10-01T22:01:00.630Z,2.90
2022-10-01T22:03:46.366Z,3.40
2022-10-01T22:09:25.841Z,2.80
2022-10-01T22:11:58.850Z,3.50
2022-10-01T22:14:28.717Z,4.10
2022-10-01T22:17:05.816Z,3.60
2022-10-01T22:19:42.903Z,3.90
2022-10-01T22:22:28.969Z,2.80
2022-10-01T22:25:00.208Z,3.50
2022-10-01T22:27:37.786Z,3.20
2022-10-01T22:30:17.742Z,3.40
2022-10-01T22:33:04.728Z,3.10
2022-10-01T22:35:48.906Z,3.40
2022-10-01T22:38:29.121Z,3.90
2022-10-01T22:41:10.324Z,3.80
2022-10-01T22:43:40.494Z,3.20
2022-10-01T22:46:36.639Z,3.60
2022-10-01T22:49:48.453Z,3.10
2022-10-01T22:52:39.353Z,3.00
2022-10-01T22:55:53.401Z,2.70
2022-10-01T22:59:10.510Z,3.60
2022-10-01T23:02:01.715Z,2.50
2022-10-01T23:05:25.826Z,3.50
2022-10-01T23:08:27.469Z,3.20
2022-10-01T23:11:17.048Z,3.20
2022-10-01T23:14:26.006Z,3.20
2022-10-01T23:17:18.101Z,3.40
2022-10-01T23:20:32.927Z,3.20
2022-10-01T23:23:35.365Z,2.80
2022-10-01T23:26:36.293Z,2.80
2022-10-01T23:29:48.293Z,3.30
2022-10-01T23:33:05.338Z,2.90
2022-10-01T23:36:22.849Z,2.10
2022-10-01T23:39:36.958Z,2.30
2022-10-01T23:42:35.820Z,2.40
2022-10-01T23:45:23.964Z,2.50
2022-10-01T23:48:15.743Z,2.40
2022-10-01T23:51:17.429Z,2.40
2022-10-01T23:54:11.391Z,1.70
2022-10-01T23:56:54.956Z,1.40
2022-10-01T23:59:47.607Z,2.00
